Time;durP1;ratioP1;P1;durP2;ratioP2;P2;SDS_P1;SDS_P2;PMS_P1;PMS_P2;Temp;Humidity;BMP_temperature;BMP_pressure;BME280_temperature;BME280_humidity;BME280_pressure;Samples;Min_cycle;Max_cycle;Signal;HPM_P1;HPM_P2
2022/08/26 00:02:15;;;;;;;;;;;;;;;;;;6093842;23;8258;-86
2022/08/26 00:04:41;;;;;;;;;;;;;;;;;;6094432;23;8880;-86
2022/08/26 00:07:06;;;;;;;;;;;;;;;;;;6093782;23;7685;-86
2022/08/26 00:09:33;;;;;;;;;;;;;;;;;;6093836;23;8435;-86
2022/08/26 00:11:58;;;;;;;;;;;;;;;;;;6093948;23;7042;-85
2022/08/26 00:14:25;;;;;;;;;;;;;;;;;;6093634;23;8768;-85
2022/08/26 00:16:51;;;;;;;;;;;;;;;;;;6093561;23;8872;-84
2022/08/26 00:19:18;;;;;;;;;;;;;;;;;;6094134;23;8669;-86
2022/08/26 00:21:44;;;;;;;;;;;;;;;;;;6093591;23;9366;-86
2022/08/26 00:24:10;;;;;;;;;;;;;;;;;;6093797;23;8382;-86
2022/08/26 00:26:36;;;;;;;;;;;;;;;;;;6094072;23;8425;-86
2022/08/26 00:29:02;;;;;;;;;;;;;;;;;;6094068;23;8421;-87
2022/08/26 00:31:28;;;;;;;;;;;;;;;;;;6093561;23;8556;-85
2022/08/26 00:33:54;;;;;;;;;;;;;;;;;;6094120;23;8413;-85
2022/08/26 00:36:20;;;;;;;;;;;;;;;;;;6093401;23;9201;-86
2022/08/26 00:38:46;;;;;;;;;;;;;;;;;;6094184;23;8488;-85
2022/08/26 00:41:12;;;;;;;;;;;;;;;;;;6094115;23;8757;-86
2022/08/26 00:43:38;;;;;;;;;;;;;;;;;;6093609;23;8397;-86
2022/08/26 00:46:18;;;;;;;;;;;;;;;;;;6093521;23;8339;-86
2022/08/26 00:48:46;;;;;;;;;;;;;;;;;;6093631;23;7199;-85
2022/08/26 00:51:18;;;;;;;;;;;;;;;;;;6093942;23;7014;-85
2022/08/26 00:53:48;;;;;;;;;;;;;;;;;;6094002;23;8435;-86
2022/08/26 00:56:21;;;;;;;;;;;;;;;;;;6093698;23;7056;-85
2022/08/26 00:58:48;;;;;;;;;;;;;;;;;;6094505;23;8740;-85
2022/08/26 01:01:16;;;;;;;;;;;;;;;;;;6093315;23;6892;-86
2022/08/26 01:03:44;;;;;;;;;;;;;;;;;;6093455;23;8582;-86
2022/08/26 01:06:12;;;;;;;;;;;;;;;;;;6093168;23;8768;-86
2022/08/26 01:08:37;;;;;;;;;;;;;;;;;;6093388;23;7011;-87
2022/08/26 01:11:04;;;;;;;;;;;;;;;;;;6093472;23;8348;-86
2022/08/26 01:13:31;;;;;;;;;;;;;;;;;;6093371;23;8425;-86
2022/08/26 01:15:59;;;;;;;;;;;;;;;;;;6091692;23;7173;-86
2022/08/26 01:18:26;;;;;;;;;;;;;;;;;;6040495;23;7012;-85
2022/08/26 01:21:10;;;;;;;;;;;;;;;;;;6040842;23;8396;-85
2022/08/26 01:23:39;;;;;;;;;;;;;;;;;;6017605;23;9146;-87
2022/08/26 01:26:09;;;;;;;;;;;;;;;;;;6040189;23;8687;-85
2022/08/26 01:28:37;;;;;;;;;;;;;;;;;;6040491;23;8543;-84
2022/08/26 01:31:06;;;;;;;;;;;;;;;;;;6041114;23;7102;-85
2022/08/26 01:33:42;;;;;;;;;;;;;;;;;;6040412;23;8866;-86
2022/08/26 01:36:09;;;;;;;;;;;;;;;;;;6040396;23;8730;-85
2022/08/26 01:38:35;;;;;;;;;;;;;;;;;;6040565;23;7297;-86
2022/08/26 01:41:02;;;;;;;;;;;;;;;;;;6040375;23;8487;-86
2022/08/26 01:43:31;;;;;;;;;;;;;;;;;;6040506;23;9032;-85
2022/08/26 01:45:57;;;;;;;;;;;;;;;;;;6040332;23;8498;-85
2022/08/26 01:48:30;;;;;;;;;;;;;;;;;;6041138;23;8450;-85
2022/08/26 01:50:58;;;;;;;;;;;;;;;;;;6040290;23;7399;-86
2022/08/26 01:53:25;;;;;;;;;;;;;;;;;;6041529;23;7015;-84
2022/08/26 01:55:54;;;;;;;;;;;;;;;;;;6040695;23;8468;-85
2022/08/26 01:58:26;;;;;;;;;;;;;;;;;;6040159;23;8457;-83
2022/08/26 02:00:53;;;;;;;;;;;;;;;;;;6040519;23;8418;-85
2022/08/26 02:03:21;;;;;;;;;;;;;;;;;;6040276;23;8400;-86
2022/08/26 02:05:51;;;;;;;;;;;;;;;;;;6040166;23;7134;-85
2022/08/26 02:08:18;;;;;;;;;;;;;;;;;;6040553;23;8571;-86
2022/08/26 02:10:43;;;;;;;;;;;;;;;;;;6039790;23;8409;-84
2022/08/26 02:13:10;;;;;;;;;;;;;;;;;;6040064;23;7000;-85
2022/08/26 02:15:40;;;;;;;;;;;;;;;;;;6041213;23;8491;-85
2022/08/26 02:18:08;;;;;;;;;;;;;;;;;;6089389;23;8419;-84
2022/08/26 02:20:34;;;;;;;;;;;;;;;;;;6093266;23;8419;-86
2022/08/26 02:22:59;;;;;;;;;;;;;;;;;;6093441;23;7112;-85
2022/08/26 02:25:28;;;;;;;;;;;;;;;;;;6093484;23;8432;-85
2022/08/26 02:27:55;;;;;;;;;;;;;;;;;;6069503;23;8443;-85
2022/08/26 02:30:23;;;;;;;;;;;;;;;;;;6092897;23;7239;-84
2022/08/26 02:32:50;;;;;;;;;;;;;;;;;;6092969;23;8604;-83
2022/08/26 02:35:17;;;;;;;;;;;;;;;;;;6093079;23;8427;-86
2022/08/26 02:37:43;;;;;;;;;;;;;;;;;;6093907;23;8662;-84
2022/08/26 02:40:10;;;;;;;;;;;;;;;;;;6094829;23;7477;-85
2022/08/26 02:42:36;;;;;;;;;;;;;;;;;;6095554;23;8415;-85
2022/08/26 02:45:03;;;;;;;;;;;;;;;;;;6094737;23;7488;-83
2022/08/26 02:47:28;;;;;;;;;;;;;;;;;;6094470;23;6841;-84
2022/08/26 02:49:54;;;;;;;;;;;;;;;;;;6094591;23;8464;-84
2022/08/26 02:52:20;;;;;;;;;;;;;;;;;;6093914;23;8375;-83
2022/08/26 02:54:46;;;;;;;;;;;;;;;;;;6094427;23;7316;-84
2022/08/26 02:57:11;;;;;;;;;;;;;;;;;;6094943;23;8102;-82
2022/08/26 02:59:38;;;;;;;;;;;;;;;;;;6094552;23;8399;-84
2022/08/26 03:02:05;;;;;;;;;;;;;;;;;;6094397;23;7799;-83
2022/08/26 03:04:32;;;;;;;;;;;;;;;;;;6095570;23;8727;-83
2022/08/26 03:06:58;;;;;;;;;;;;;;;;;;6094450;23;7043;-84
2022/08/26 03:09:23;;;;;;;;;;;;;;;;;;6094518;23;8419;-84
2022/08/26 03:11:50;;;;;;;;;;;;;;;;;;6094105;23;8460;-84
2022/08/26 03:14:15;;;;;;;;;;;;;;;;;;6094711;23;8502;-83
2022/08/26 03:16:41;;;;;;;;;;;;;;;;;;6093934;23;7347;-84
2022/08/26 03:19:08;;;;;;;;;;;;;;;;;;6094308;23;7161;-84
2022/08/26 03:21:36;;;;;;;;;;;;;;;;;;6094589;23;8416;-84
2022/08/26 03:24:02;;;;;;;;;;;;;;;;;;6094049;23;8479;-86
2022/08/26 03:26:27;;;;;;;;;;;;;;;;;;6094193;23;8365;-85
2022/08/26 03:31:38;;;;;;;;;;;;;;;;;;6071245;23;6946;-84
2022/08/26 03:34:04;;;;;;;;;;;;;;;;;;6094624;23;8438;-83
2022/08/26 03:36:29;;;;;;;;;;;;;;;;;;6093895;23;8771;-83
2022/08/26 03:38:55;;;;;;;;;;;;;;;;;;6093923;23;8173;-83
2022/08/26 03:41:20;;;;;;;;;;;;;;;;;;6094195;23;8895;-84
2022/08/26 03:43:47;;;;;;;;;;;;;;;;;;6094155;23;8580;-84
2022/08/26 03:46:12;;;;;;;;;;;;;;;;;;6094650;23;7248;-83
2022/08/26 03:48:39;;;;;;;;;;;;;;;;;;6093880;23;8668;-84
2022/08/26 03:51:10;;;;;;;;;;;;;;;;;;6093835;23;8465;-84
2022/08/26 03:53:36;;;;;;;;;;;;;;;;;;6095828;23;7227;-84
2022/08/26 03:56:02;;;;;;;;;;;;;;;;;;6093970;23;8466;-84
2022/08/26 03:58:27;;;;;;;;;;;;;;;;;;6094033;23;8545;-83
2022/08/26 04:00:53;;;;;;;;;;;;;;;;;;6094059;23;8391;-82
2022/08/26 04:03:56;;;;;;;;;;;;;;;;;;6070099;23;8548;-84
2022/08/26 04:06:04;;;;;;;;;;;;;;;;;;6071051;23;6960;-84
2022/08/26 04:08:30;;;;;;;;;;;;;;;;;;6069830;23;6955;-85
2022/08/26 04:10:55;;;;;;;;;;;;;;;;;;6094169;23;8325;-84
2022/08/26 04:13:21;;;;;;;;;;;;;;;;;;6093411;23;7024;-82
2022/08/26 04:15:46;;;;;;;;;;;;;;;;;;6093932;23;8420;-84
2022/08/26 04:18:12;;;;;;;;;;;;;;;;;;6093995;23;8388;-84
2022/08/26 04:20:38;;;;;;;;;;;;;;;;;;6093658;23;8556;-84
2022/08/26 04:23:03;;;;;;;;;;;;;;;;;;6093592;23;8618;-84
2022/08/26 04:25:29;;;;;;;;;;;;;;;;;;6086402;23;8480;-84
2022/08/26 04:27:55;;;;;;;;;;;;;;;;;;6092843;23;8596;-84
2022/08/26 04:30:20;;;;;;;;;;;;;;;;;;6092899;23;8430;-84
2022/08/26 04:32:46;;;;;;;;;;;;;;;;;;6092188;23;8323;-84
2022/08/26 04:35:11;;;;;;;;;;;;;;;;;;6092419;23;8370;-82
2022/08/26 04:37:37;;;;;;;;;;;;;;;;;;6091705;23;8565;-83
2022/08/26 04:40:03;;;;;;;;;;;;;;;;;;6092205;23;8529;-85
2022/08/26 04:42:28;;;;;;;;;;;;;;;;;;6092059;23;7073;-84
2022/08/26 04:44:54;;;;;;;;;;;;;;;;;;6092139;23;7116;-82
2022/08/26 04:47:19;;;;;;;;;;;;;;;;;;6091675;23;8616;-83
2022/08/26 04:49:45;;;;;;;;;;;;;;;;;;6092644;23;8415;-87
2022/08/26 04:52:10;;;;;;;;;;;;;;;;;;6092815;23;8385;-82
2022/08/26 04:54:36;;;;;;;;;;;;;;;;;;6092383;23;8560;-85
2022/08/26 04:57:01;;;;;;;;;;;;;;;;;;6090989;23;8400;-82
2022/08/26 04:59:27;;;;;;;;;;;;;;;;;;6092418;23;8704;-84
2022/08/26 05:01:58;;;;;;;;;;;;;;;;;;6091841;23;8543;-87
2022/08/26 05:04:24;;;;;;;;;;;;;;;;;;6092263;23;8484;-85
2022/08/26 05:06:49;;;;;;;;;;;;;;;;;;6090999;23;8398;-84
2022/08/26 05:09:17;;;;;;;;;;;;;;;;;;6092034;23;7045;-83
2022/08/26 05:11:42;;;;;;;;;;;;;;;;;;6092243;23;8400;-83
2022/08/26 05:14:08;;;;;;;;;;;;;;;;;;6092206;23;8405;-84
2022/08/26 05:16:34;;;;;;;;;;;;;;;;;;6090664;23;8745;-83
2022/08/26 05:19:00;;;;;;;;;;;;;;;;;;6092184;23;8722;-83
2022/08/26 05:21:27;;;;;;;;;;;;;;;;;;6092607;23;8782;-83
2022/08/26 05:23:54;;;;;;;;;;;;;;;;;;6092281;23;7163;-84
2022/08/26 05:26:21;;;;;;;;;;;;;;;;;;6090924;23;8449;-85
2022/08/26 05:28:47;;;;;;;;;;;;;;;;;;6095208;23;6962;-84
2022/08/26 05:31:14;;;;;;;;;;;;;;;;;;6092244;23;6995;-85
2022/08/26 05:33:40;;;;;;;;;;;;;;;;;;6092231;23;7045;-85
2022/08/26 05:36:10;;;;;;;;;;;;;;;;;;6091376;23;8427;-85
2022/08/26 05:38:36;;;;;;;;;;;;;;;;;;6091386;23;7155;-84
2022/08/26 05:41:01;;;;;;;;;;;;;;;;;;6091488;23;7037;-85
2022/08/26 05:43:27;;;;;;;;;;;;;;;;;;6068765;23;7153;-83
2022/08/26 05:45:53;;;;;;;;;;;;;;;;;;6091052;23;9041;-84
2022/08/26 05:48:19;;;;;;;;;;;;;;;;;;6091992;23;8488;-84
2022/08/26 05:50:50;;;;;;;;;;;;;;;;;;6092052;23;7108;-84
2022/08/26 05:53:18;;;;;;;;;;;;;;;;;;6091297;23;8430;-84
2022/08/26 05:55:48;;;;;;;;;;;;;;;;;;6090935;23;8622;-87
2022/08/26 05:58:15;;;;;;;;;;;;;;;;;;6092295;23;8511;-84
2022/08/26 06:00:40;;;;;;;;;;;;;;;;;;6091497;23;8430;-80
2022/08/26 06:03:07;;;;;;;;;;;;;;;;;;6092232;23;7148;-80
2022/08/26 06:05:41;;;;;;;;;;;;;;;;;;6091794;23;7144;-86
2022/08/26 06:08:10;;;;;;;;;;;;;;;;;;6091396;23;8411;-86
2022/08/26 06:10:41;;;;;;;;;;;;;;;;;;6091634;23;7131;-84
2022/08/26 06:13:06;;;;;;;;;;;;;;;;;;6093385;23;8426;-86
2022/08/26 06:15:33;;;;;;;;;;;;;;;;;;6092170;23;8587;-82
2022/08/26 06:17:59;;;;;;;;;;;;;;;;;;6094010;23;7115;-85
2022/08/26 06:20:24;;;;;;;;;;;;;;;;;;6093315;23;6820;-84
2022/08/26 06:25:36;;;;;;;;;;;;;;;;;;6069552;23;6807;-83
2022/08/26 06:28:04;;;;;;;;;;;;;;;;;;6094088;23;8447;-85
2022/08/26 06:30:30;;;;;;;;;;;;;;;;;;6092754;23;6830;-87
2022/08/26 06:32:55;;;;;;;;;;;;;;;;;;6095551;23;8883;-85
2022/08/26 06:35:21;;;;;;;;;;;;;;;;;;6094816;23;8426;-86
2022/08/26 06:37:46;;;;;;;;;;;;;;;;;;6093514;23;8695;-85
2022/08/26 06:40:12;;;;;;;;;;;;;;;;;;6094174;23;8491;-85
2022/08/26 06:42:38;;;;;;;;;;;;;;;;;;6094471;23;8837;-84
2022/08/26 06:45:04;;;;;;;;;;;;;;;;;;6094003;23;8654;-83
2022/08/26 06:47:30;;;;;;;;;;;;;;;;;;6094369;23;8336;-85
2022/08/26 06:49:56;;;;;;;;;;;;;;;;;;6094269;23;8363;-85
2022/08/26 06:52:21;;;;;;;;;;;;;;;;;;6070371;23;8356;-88
2022/08/26 06:54:46;;;;;;;;;;;;;;;;;;6093907;23;8382;-82
2022/08/26 06:57:12;;;;;;;;;;;;;;;;;;6092967;23;8391;-82
2022/08/26 06:59:37;;;;;;;;;;;;;;;;;;6093281;23;7154;-85
2022/08/26 07:02:04;;;;;;;;;;;;;;;;;;6093226;23;8395;-87
2022/08/26 07:04:30;;;;;;;;;;;;;;;;;;6093465;23;8809;-86
2022/08/26 07:06:56;;;;;;;;;;;;;;;;;;6092221;23;8733;-85
2022/08/26 07:09:24;;;;;;;;;;;;;;;;;;6093869;23;7144;-82
2022/08/26 07:11:51;;;;;;;;;;;;;;;;;;6092635;23;8353;-81
2022/08/26 07:14:17;;;;;;;;;;;;;;;;;;6092602;23;7388;-85
2022/08/26 07:16:43;;;;;;;;;;;;;;;;;;6093066;23;7034;-82
2022/08/26 07:19:09;;;;;;;;;;;;;;;;;;6093671;23;8424;-82
2022/08/26 07:21:35;;;;;;;;;;;;;;;;;;6093801;23;8617;-79
2022/08/26 07:24:00;;;;;;;;;;;;;;;;;;6092944;23;8736;-82
2022/08/26 07:26:27;;;;;;;;;;;;;;;;;;6092779;23;8446;-82
2022/08/26 07:28:54;;;;;;;;;;;;;;;;;;6092858;23;8623;-81
2022/08/26 07:31:21;;;;;;;;;;;;;;;;;;6092514;23;8786;-81
2022/08/26 07:33:47;;;;;;;;;;;;;;;;;;6093324;23;7424;-81
2022/08/26 07:36:14;;;;;;;;;;;;;;;;;;6092582;23;8663;-82
2022/08/26 07:38:40;;;;;;;;;;;;;;;;;;6092472;23;8749;-81
2022/08/26 07:41:07;;;;;;;;;;;;;;;;;;6092427;23;8421;-81
2022/08/26 07:43:34;;;;;;;;;;;;;;;;;;6093029;23;8413;-81
2022/08/26 07:46:00;;;;;;;;;;;;;;;;;;6091763;23;8884;-83
2022/08/26 07:48:26;;;;;;;;;;;;;;;;;;6093018;23;7857;-83
2022/08/26 07:50:52;;;;;;;;;;;;;;;;;;6093331;23;8568;-82
2022/08/26 07:53:18;;;;;;;;;;;;;;;;;;6092138;23;7168;-84
2022/08/26 07:55:44;;;;;;;;;;;;;;;;;;6091868;23;8670;-85
2022/08/26 07:58:09;;;;;;;;;;;;;;;;;;6093076;23;8550;-85
2022/08/26 08:00:35;;;;;;;;;;;;;;;;;;6091984;23;7129;-84
2022/08/26 08:03:03;;;;;;;;;;;;;;;;;;6092759;23;7171;-84
2022/08/26 08:05:32;;;;;;;;;;;;;;;;;;6092449;23;8570;-83
2022/08/26 08:07:58;;;;;;;;;;;;;;;;;;6092119;23;8478;-85
2022/08/26 08:10:24;;;;;;;;;;;;;;;;;;6093153;23;8485;-84
2022/08/26 08:12:50;;;;;;;;;;;;;;;;;;6092753;23;6989;-84
2022/08/26 08:15:18;;;;;;;;;;;;;;;;;;6091936;23;8502;-80
2022/08/26 08:17:43;;;;;;;;;;;;;;;;;;6092843;23;8425;-83
2022/08/26 08:20:09;;;;;;;;;;;;;;;;;;6093151;23;8805;-83
2022/08/26 08:22:35;;;;;;;;;;;;;;;;;;6092113;23;7852;-84
2022/08/26 08:25:00;;;;;;;;;;;;;;;;;;6092642;23;7107;-80
2022/08/26 08:27:26;;;;;;;;;;;;;;;;;;6092567;23;8610;-85
2022/08/26 08:29:53;;;;;;;;;;;;;;;;;;6092568;23;8429;-86
2022/08/26 08:32:19;;;;;;;;;;;;;;;;;;6092794;23;7168;-85
2022/08/26 08:34:44;;;;;;;;;;;;;;;;;;6091518;23;8374;-85
2022/08/26 08:37:10;;;;;;;;;;;;;;;;;;6091619;23;8425;-85
2022/08/26 08:39:35;;;;;;;;;;;;;;;;;;6092855;23;8411;-80
2022/08/26 08:42:07;;;;;;;;;;;;;;;;;;6092492;23;8693;-80
2022/08/26 08:44:36;;;;;;;;;;;;;;;;;;6067338;23;8660;-81
2022/08/26 08:47:14;;;;;;;;;;;;;;;;;;6091294;23;8506;-84
2022/08/26 08:49:39;;;;;;;;;;;;;;;;;;6092414;23;8631;-85
2022/08/26 08:52:31;;;;;;;;;;;;;;;;;;6092239;23;8838;-85
2022/08/26 08:54:57;;;;;;;;;;;;;;;;;;6061919;23;8894;-81
2022/08/26 08:57:41;;;;;;;;;;;;;;;;;;6094206;23;7063;-85
2022/08/26 09:00:11;;;;;;;;;;;;;;;;;;6069208;23;8438;-87
2022/08/26 09:02:47;;;;;;;;;;;;;;;;;;6091236;23;7353;-85
2022/08/26 09:05:16;;;;;;;;;;;;;;;;;;6089825;23;8409;-81
2022/08/26 09:07:48;;;;;;;;;;;;;;;;;;6067974;23;8501;-83
2022/08/26 09:10:19;;;;;;;;;;;;;;;;;;6090794;23;8450;-84
2022/08/26 09:12:46;;;;;;;;;;;;;;;;;;6068662;23;8395;-84
2022/08/26 09:15:19;;;;;;;;;;;;;;;;;;6093178;23;6954;-86
2022/08/26 09:17:54;;;;;;;;;;;;;;;;;;6093070;23;8561;-85
2022/08/26 09:20:38;;;;;;;;;;;;;;;;;;6069081;23;8657;-85
2022/08/26 09:23:03;;;;;;;;;;;;;;;;;;6068960;23;8411;-84
2022/08/26 09:25:29;;;;;;;;;;;;;;;;;;6092445;23;8657;-84
2022/08/26 09:27:55;;;;;;;;;;;;;;;;;;6092693;23;8560;-85
2022/08/26 09:30:20;;;;;;;;;;;;;;;;;;6092782;23;8349;-83
2022/08/26 09:32:57;;;;;;;;;;;;;;;;;;6069136;23;8323;-85
2022/08/26 09:35:26;;;;;;;;;;;;;;;;;;6090082;23;8616;-85
2022/08/26 09:37:52;;;;;;;;;;;;;;;;;;6090487;23;7183;-85
2022/08/26 09:40:25;;;;;;;;;;;;;;;;;;6092068;23;8432;-83
2022/08/26 09:43:20;;;;;;;;;;;;;;;;;;6093096;23;9169;-84
2022/08/26 09:45:53;;;;;;;;;;;;;;;;;;6044209;23;8542;-83
2022/08/26 09:48:35;;;;;;;;;;;;;;;;;;6091844;23;7060;-84
2022/08/26 09:51:04;;;;;;;;;;;;;;;;;;6092567;23;8449;-83
2022/08/26 09:53:32;;;;;;;;;;;;;;;;;;6092834;23;7134;-84
2022/08/26 09:56:25;;;;;;;;;;;;;;;;;;6092426;23;8458;-85
2022/08/26 09:58:51;;;;;;;;;;;;;;;;;;6092547;23;8777;-86
2022/08/26 10:01:40;;;;;;;;;;;;;;;;;;6092693;23;7183;-86
2022/08/26 10:04:19;;;;;;;;;;;;;;;;;;6092264;23;8812;-84
2022/08/26 10:07:01;;;;;;;;;;;;;;;;;;6092387;23;8398;-84
2022/08/26 10:09:29;;;;;;;;;;;;;;;;;;6092531;23;8604;-85
2022/08/26 10:11:59;;;;;;;;;;;;;;;;;;6093086;23;8397;-86
2022/08/26 10:14:34;;;;;;;;;;;;;;;;;;6092591;23;8892;-85
2022/08/26 10:17:38;;;;;;;;;;;;;;;;;;6092112;23;8459;-86
2022/08/26 10:20:09;;;;;;;;;;;;;;;;;;5959926;24;8396;-84
2022/08/26 10:22:35;;;;;;;;;;;;;;;;;;5960033;24;8876;-85
2022/08/26 10:25:05;;;;;;;;;;;;;;;;;;5959215;24;8524;-85
2022/08/26 10:27:47;;;;;;;;;;;;;;;;;;5958801;24;8659;-88
2022/08/26 10:30:19;;;;;;;;;;;;;;;;;;5959322;24;7017;-86
2022/08/26 10:32:48;;;;;;;;;;;;;;;;;;5959056;24;8440;-88
2022/08/26 10:35:16;;;;;;;;;;;;;;;;;;5958954;24;8377;-84
2022/08/26 10:37:48;;;;;;;;;;;;;;;;;;5961387;24;8431;-86
2022/08/26 10:40:33;;;;;;;;;;;;;;;;;;5959187;24;7142;-85
2022/08/26 10:43:08;;;;;;;;;;;;;;;;;;5958705;24;7502;-87
2022/08/26 10:45:41;;;;;;;;;;;;;;;;;;5959107;24;8442;-87
2022/08/26 10:48:11;;;;;;;;;;;;;;;;;;5959943;24;8427;-86
2022/08/26 10:50:40;;;;;;;;;;;;;;;;;;6003551;23;8493;-87
2022/08/26 10:53:18;;;;;;;;;;;;;;;;;;6093069;23;8440;-86
2022/08/26 10:55:52;;;;;;;;;;;;;;;;;;6068595;23;7942;-85
2022/08/26 10:58:33;;;;;;;;;;;;;;;;;;6069358;23;8435;-83
2022/08/26 11:04:00;;;;;;;;;;;;;;;;;;6070253;23;6821;-82
2022/08/26 11:06:28;;;;;;;;;;;;;;;;;;6091890;23;8837;-85
2022/08/26 11:08:55;;;;;;;;;;;;;;;;;;6092456;23;8442;-85
2022/08/26 11:11:44;;;;;;;;;;;;;;;;;;6091702;23;7200;-83
2022/08/26 11:14:18;;;;;;;;;;;;;;;;;;6092139;23;8774;-85
2022/08/26 11:16:50;;;;;;;;;;;;;;;;;;6068194;23;8492;-81
2022/08/26 11:19:34;;;;;;;;;;;;;;;;;;6091192;23;8846;-83
2022/08/26 11:22:05;;;;;;;;;;;;;;;;;;6068638;23;8615;-86
2022/08/26 11:24:45;;;;;;;;;;;;;;;;;;6092543;23;8989;-85
2022/08/26 11:27:23;;;;;;;;;;;;;;;;;;6091548;23;8844;-86
2022/08/26 11:29:55;;;;;;;;;;;;;;;;;;6069941;23;8462;-86
2022/08/26 11:32:36;;;;;;;;;;;;;;;;;;6072205;23;7421;-88
2022/08/26 11:35:05;;;;;;;;;;;;;;;;;;6074301;23;6885;-82
2022/08/26 11:37:36;;;;;;;;;;;;;;;;;;6098186;23;7163;-86
2022/08/26 11:40:05;;;;;;;;;;;;;;;;;;6096303;23;8357;-83
2022/08/26 11:42:53;;;;;;;;;;;;;;;;;;6092076;23;7212;-87
2022/08/26 11:45:36;;;;;;;;;;;;;;;;;;6067462;23;7210;-86
2022/08/26 11:48:17;;;;;;;;;;;;;;;;;;6093491;23;7469;-82
2022/08/26 11:50:53;;;;;;;;;;;;;;;;;;6068845;23;8668;-83
2022/08/26 11:53:19;;;;;;;;;;;;;;;;;;6093583;23;8495;-84
2022/08/26 11:55:46;;;;;;;;;;;;;;;;;;6093461;23;8801;-82
2022/08/26 11:58:12;;;;;;;;;;;;;;;;;;6094529;23;6904;-86
2022/08/26 12:00:51;;;;;;;;;;;;;;;;;;6093755;23;8953;-83
2022/08/26 12:03:19;;;;;;;;;;;;;;;;;;6094651;23;7444;-86
2022/08/26 12:05:48;;;;;;;;;;;;;;;;;;6093716;23;8438;-86
2022/08/26 12:08:17;;;;;;;;;;;;;;;;;;6092266;23;8471;-85
2022/08/26 12:10:44;;;;;;;;;;;;;;;;;;6091624;23;8525;-87
2022/08/26 12:13:19;;;;;;;;;;;;;;;;;;6091947;23;8898;-82
2022/08/26 12:15:51;;;;;;;;;;;;;;;;;;6092133;23;8834;-85
2022/08/26 12:18:22;;;;;;;;;;;;;;;;;;6092650;23;7274;-85
2022/08/26 12:20:52;;;;;;;;;;;;;;;;;;6090742;23;8474;-84
2022/08/26 12:23:24;;;;;;;;;;;;;;;;;;6091896;23;8938;-84
2022/08/26 12:26:01;;;;;;;;;;;;;;;;;;6068515;23;8568;-82
2022/08/26 12:28:27;;;;;;;;;;;;;;;;;;6092425;23;8467;-86
2022/08/26 12:31:01;;;;;;;;;;;;;;;;;;6091207;23;8940;-83
2022/08/26 12:33:27;;;;;;;;;;;;;;;;;;6091751;23;8930;-86
2022/08/26 12:35:53;;;;;;;;;;;;;;;;;;6092492;23;8449;-85
2022/08/26 12:38:19;;;;;;;;;;;;;;;;;;6091607;23;8486;-86
2022/08/26 12:40:45;;;;;;;;;;;;;;;;;;6090987;23;8796;-84
2022/08/26 12:43:15;;;;;;;;;;;;;;;;;;6091841;23;7034;-87
2022/08/26 12:46:03;;;;;;;;;;;;;;;;;;6091517;23;8932;-85
2022/08/26 12:48:28;;;;;;;;;;;;;;;;;;6067651;23;8743;-85
2022/08/26 12:50:55;;;;;;;;;;;;;;;;;;6066414;23;8633;-87
2022/08/26 12:53:23;;;;;;;;;;;;;;;;;;6091187;23;7378;-85
2022/08/26 12:55:49;;;;;;;;;;;;;;;;;;6090793;23;8487;-85
2022/08/26 12:58:14;;;;;;;;;;;;;;;;;;6068151;23;8791;-85
2022/08/26 13:00:40;;;;;;;;;;;;;;;;;;6066690;23;9385;-85
2022/08/26 13:03:24;;;;;;;;;;;;;;;;;;6067171;23;8620;-86
2022/08/26 13:05:49;;;;;;;;;;;;;;;;;;6068506;23;8532;-87
2022/08/26 13:08:26;;;;;;;;;;;;;;;;;;6091138;23;8937;-86
2022/08/26 13:11:09;;;;;;;;;;;;;;;;;;6091273;23;8747;-87
2022/08/26 13:13:34;;;;;;;;;;;;;;;;;;6091196;23;8440;-86
2022/08/26 13:16:00;;;;;;;;;;;;;;;;;;6094370;23;8839;-87
2022/08/26 13:18:26;;;;;;;;;;;;;;;;;;6042121;23;7090;-81
2022/08/26 13:20:52;;;;;;;;;;;;;;;;;;6040479;23;7025;-86
2022/08/26 13:23:25;;;;;;;;;;;;;;;;;;6044663;23;8345;-80
2022/08/26 13:25:52;;;;;;;;;;;;;;;;;;6001191;23;6827;-82
2022/08/26 13:28:17;;;;;;;;;;;;;;;;;;6046958;23;6853;-83
2022/08/26 13:30:44;;;;;;;;;;;;;;;;;;6043144;23;7057;-79
2022/08/26 13:33:11;;;;;;;;;;;;;;;;;;6039782;23;8448;-81
2022/08/26 13:35:37;;;;;;;;;;;;;;;;;;6038563;23;8432;-81
2022/08/26 13:38:03;;;;;;;;;;;;;;;;;;6038129;23;8584;-83
2022/08/26 13:40:28;;;;;;;;;;;;;;;;;;6037876;23;8640;-85
2022/08/26 13:42:54;;;;;;;;;;;;;;;;;;6040085;23;7235;-84
2022/08/26 13:45:19;;;;;;;;;;;;;;;;;;6038081;23;7244;-83
2022/08/26 13:47:45;;;;;;;;;;;;;;;;;;6038291;23;8429;-84
2022/08/26 13:50:11;;;;;;;;;;;;;;;;;;6038516;23;8824;-84
2022/08/26 13:52:36;;;;;;;;;;;;;;;;;;6038890;23;7011;-83
2022/08/26 13:55:02;;;;;;;;;;;;;;;;;;6039953;23;8913;-82
2022/08/26 13:57:29;;;;;;;;;;;;;;;;;;6039650;23;7067;-83
2022/08/26 13:59:57;;;;;;;;;;;;;;;;;;6039924;23;8996;-81
2022/08/26 14:02:24;;;;;;;;;;;;;;;;;;6039885;23;8827;-81
2022/08/26 14:04:49;;;;;;;;;;;;;;;;;;6040325;23;8835;-82
2022/08/26 14:07:15;;;;;;;;;;;;;;;;;;6039665;23;8493;-81
2022/08/26 14:09:40;;;;;;;;;;;;;;;;;;6039793;23;8741;-83
2022/08/26 14:12:06;;;;;;;;;;;;;;;;;;6039513;23;8439;-83
2022/08/26 14:14:31;;;;;;;;;;;;;;;;;;6039921;23;7406;-81
2022/08/26 14:16:57;;;;;;;;;;;;;;;;;;6060657;23;8809;-82
2022/08/26 14:19:22;;;;;;;;;;;;;;;;;;6092444;23;8443;-81
2022/08/26 14:21:48;;;;;;;;;;;;;;;;;;6092264;23;8443;-76
2022/08/26 14:24:13;;;;;;;;;;;;;;;;;;6092988;23;8933;-82
2022/08/26 14:26:38;;;;;;;;;;;;;;;;;;6091885;23;9488;-81
2022/08/26 14:29:04;;;;;;;;;;;;;;;;;;6092338;23;8458;-82
2022/08/26 14:31:31;;;;;;;;;;;;;;;;;;6068493;23;8453;-83
2022/08/26 14:34:00;;;;;;;;;;;;;;;;;;6092550;23;8879;-83
2022/08/26 14:36:30;;;;;;;;;;;;;;;;;;6094366;23;8460;-80
2022/08/26 14:38:59;;;;;;;;;;;;;;;;;;6094572;23;7126;-82
2022/08/26 14:41:25;;;;;;;;;;;;;;;;;;6094436;23;8953;-82
2022/08/26 14:43:56;;;;;;;;;;;;;;;;;;6070865;23;8505;-83
2022/08/26 14:46:25;;;;;;;;;;;;;;;;;;6094148;23;9248;-82
2022/08/26 14:48:51;;;;;;;;;;;;;;;;;;6093831;23;7193;-83
2022/08/26 14:51:16;;;;;;;;;;;;;;;;;;6093792;23;8557;-82
2022/08/26 14:56:29;;;;;;;;;;;;;;;;;;6070749;23;6824;-81
2022/08/26 14:58:55;;;;;;;;;;;;;;;;;;6094644;23;7298;-83
2022/08/26 15:01:20;;;;;;;;;;;;;;;;;;6094116;23;8690;-81
2022/08/26 15:03:46;;;;;;;;;;;;;;;;;;6094855;23;8418;-82
2022/08/26 15:06:12;;;;;;;;;;;;;;;;;;6094010;23;8469;-82
2022/08/26 15:08:38;;;;;;;;;;;;;;;;;;6093841;23;8417;-80
2022/08/26 15:11:04;;;;;;;;;;;;;;;;;;6093910;23;8625;-82
2022/08/26 15:13:29;;;;;;;;;;;;;;;;;;6094900;23;8514;-82
2022/08/26 15:15:55;;;;;;;;;;;;;;;;;;6093623;23;9404;-81
2022/08/26 15:18:22;;;;;;;;;;;;;;;;;;6041270;23;8635;-81
2022/08/26 15:20:47;;;;;;;;;;;;;;;;;;6041133;23;8946;-84
2022/08/26 15:23:14;;;;;;;;;;;;;;;;;;6041678;23;8685;-87
2022/08/26 15:25:42;;;;;;;;;;;;;;;;;;6042846;23;7045;-86
2022/08/26 15:28:07;;;;;;;;;;;;;;;;;;6041658;23;9287;-87
2022/08/26 15:30:33;;;;;;;;;;;;;;;;;;6041666;23;7053;-87
2022/08/26 15:32:58;;;;;;;;;;;;;;;;;;6040553;23;8785;-91
2022/08/26 15:35:24;;;;;;;;;;;;;;;;;;6041289;23;8715;-87
2022/08/26 15:37:49;;;;;;;;;;;;;;;;;;6040161;23;8992;-88
2022/08/26 15:40:17;;;;;;;;;;;;;;;;;;6040652;23;8335;-84
2022/08/26 15:42:43;;;;;;;;;;;;;;;;;;6040851;23;8544;-86
2022/08/26 15:45:10;;;;;;;;;;;;;;;;;;6040423;23;8846;-86
2022/08/26 15:47:35;;;;;;;;;;;;;;;;;;6040831;23;8436;-86
2022/08/26 15:50:00;;;;;;;;;;;;;;;;;;6040769;23;8372;-86
2022/08/26 15:52:26;;;;;;;;;;;;;;;;;;6040871;23;8569;-84
2022/08/26 15:54:51;;;;;;;;;;;;;;;;;;6040131;23;6998;-86
2022/08/26 15:57:17;;;;;;;;;;;;;;;;;;6040929;23;7138;-86
2022/08/26 15:59:43;;;;;;;;;;;;;;;;;;6041582;23;8430;-85
2022/08/26 16:02:08;;;;;;;;;;;;;;;;;;6040726;23;7258;-84
2022/08/26 16:04:33;;;;;;;;;;;;;;;;;;6040650;23;8528;-84
2022/08/26 16:07:00;;;;;;;;;;;;;;;;;;6041527;23;8496;-83
2022/08/26 16:09:26;;;;;;;;;;;;;;;;;;6042925;23;8542;-86
2022/08/26 16:11:53;;;;;;;;;;;;;;;;;;6042882;23;8335;-86
2022/08/26 16:14:19;;;;;;;;;;;;;;;;;;6041609;23;8333;-86
2022/08/26 16:16:45;;;;;;;;;;;;;;;;;;6056616;23;6982;-84
2022/08/26 16:19:11;;;;;;;;;;;;;;;;;;6096097;23;7283;-85
2022/08/26 16:21:38;;;;;;;;;;;;;;;;;;6095955;23;8491;-86
2022/08/26 16:24:04;;;;;;;;;;;;;;;;;;6070381;23;8284;-85
2022/08/26 16:26:31;;;;;;;;;;;;;;;;;;6093610;23;8547;-83
2022/08/26 16:28:58;;;;;;;;;;;;;;;;;;6093756;23;8922;-85
2022/08/26 16:31:24;;;;;;;;;;;;;;;;;;6093189;23;8396;-86
2022/08/26 16:33:50;;;;;;;;;;;;;;;;;;6093664;23;7048;-87
2022/08/26 16:36:16;;;;;;;;;;;;;;;;;;6093401;23;8710;-87
2022/08/26 16:38:48;;;;;;;;;;;;;;;;;;6093386;23;8484;-85
2022/08/26 16:41:15;;;;;;;;;;;;;;;;;;6092940;23;8452;-87
2022/08/26 16:43:41;;;;;;;;;;;;;;;;;;6093024;23;8448;-86
2022/08/26 16:46:07;;;;;;;;;;;;;;;;;;6092323;23;6875;-87
2022/08/26 16:48:33;;;;;;;;;;;;;;;;;;6092922;23;7632;-87
2022/08/26 16:50:59;;;;;;;;;;;;;;;;;;6093193;23;6870;-86
2022/08/26 16:53:24;;;;;;;;;;;;;;;;;;6092852;23;6999;-86
2022/08/26 16:55:50;;;;;;;;;;;;;;;;;;6093217;23;8474;-87
2022/08/26 16:58:16;;;;;;;;;;;;;;;;;;6093082;23;8400;-87
2022/08/26 17:00:41;;;;;;;;;;;;;;;;;;6092650;23;8490;-87
2022/08/26 17:03:08;;;;;;;;;;;;;;;;;;6093511;23;8347;-87
2022/08/26 17:05:35;;;;;;;;;;;;;;;;;;6093264;23;8434;-86
2022/08/26 17:08:00;;;;;;;;;;;;;;;;;;6092538;23;7014;-86
2022/08/26 17:10:28;;;;;;;;;;;;;;;;;;6092945;23;8418;-88
2022/08/26 17:12:54;;;;;;;;;;;;;;;;;;6092911;23;8809;-88
2022/08/26 17:15:22;;;;;;;;;;;;;;;;;;6092324;23;8423;-85
2022/08/26 17:17:48;;;;;;;;;;;;;;;;;;6092919;23;9159;-87
2022/08/26 17:20:15;;;;;;;;;;;;;;;;;;6092908;23;8763;-84
2022/08/26 17:22:45;;;;;;;;;;;;;;;;;;6092567;23;8363;-87